createdAt,value
2022-12-16T00:00:20.142Z,1.59
2022-12-16T00:03:04.751Z,1.28
2022-12-16T00:06:03.808Z,1.16
2022-12-16T00:11:56.603Z,1.54
2022-12-16T00:14:28.762Z,1.32
2022-12-16T00:23:30.005Z,1.58
2022-12-16T00:40:40.763Z,1.25
2022-12-16T00:43:08.513Z,1.55
2022-12-16T00:45:38.007Z,1.52
2022-12-16T00:48:13.945Z,1.65
2022-12-16T00:53:39.455Z,1.66
2022-12-16T00:56:15.031Z,1.53
2022-12-16T00:58:44.129Z,1.48
2022-12-16T01:01:17.467Z,1.95
2022-12-16T01:03:51.413Z,2.04
2022-12-16T01:06:19.921Z,1.91
2022-12-16T01:08:50.046Z,2.30
2022-12-16T01:11:18.618Z,2.62
2022-12-16T01:13:47.090Z,2.73
2022-12-16T01:16:15.740Z,2.39
2022-12-16T01:18:45.769Z,2.33
2022-12-16T01:21:15.022Z,2.61
2022-12-16T01:23:42.324Z,2.45
2022-12-16T01:26:14.698Z,2.33
2022-12-16T01:28:55.300Z,2.13
2022-12-16T01:31:25.439Z,2.10
2022-12-16T01:33:52.808Z,1.80
2022-12-16T01:36:20.796Z,2.08
2022-12-16T01:38:48.365Z,2.07
2022-12-16T01:41:16.477Z,2.12
2022-12-16T01:43:44.539Z,2.01
2022-12-16T01:46:20.487Z,2.16
2022-12-16T01:49:00.149Z,2.27
2022-12-16T01:51:31.495Z,2.49
2022-12-16T01:54:19.830Z,2.71
2022-12-16T01:56:52.341Z,2.80
2022-12-16T01:59:20.576Z,2.83
2022-12-16T02:01:50.291Z,2.70
2022-12-16T02:04:17.784Z,2.85
2022-12-16T02:06:44.604Z,3.00
2022-12-16T02:09:13.707Z,2.60
2022-12-16T02:11:53.566Z,2.93
2022-12-16T02:14:31.150Z,2.91
2022-12-16T02:17:18.523Z,2.83
2022-12-16T02:19:54.875Z,2.59
2022-12-16T02:22:52.422Z,2.98
2022-12-16T02:25:31.351Z,3.03
2022-12-16T02:28:09.953Z,3.10
2022-12-16T02:30:39.856Z,3.45
2022-12-16T02:33:32.588Z,3.40
2022-12-16T02:36:03.395Z,3.51
2022-12-16T02:38:42.881Z,3.53
2022-12-16T02:41:24.117Z,3.03
2022-12-16T02:43:55.330Z,3.19
2022-12-16T02:46:26.165Z,2.97
2022-12-16T02:48:54.840Z,3.38
2022-12-16T02:51:25.465Z,3.44
2022-12-16T02:53:53.628Z,3.87
2022-12-16T02:56:45.104Z,3.81
2022-12-16T02:59:30.724Z,3.69
2022-12-16T03:02:27.993Z,3.64
2022-12-16T03:04:58.575Z,3.68
2022-12-16T03:07:26.851Z,3.71
2022-12-16T03:09:54.183Z,3.68
2022-12-16T03:12:22.112Z,3.12
2022-12-16T03:14:51.654Z,3.09
2022-12-16T03:17:19.666Z,3.79
2022-12-16T03:19:57.412Z,3.82
2022-12-16T03:22:28.266Z,3.85
2022-12-16T03:24:56.166Z,3.84
2022-12-16T03:27:32.337Z,4.30
2022-12-16T03:29:59.031Z,4.49
2022-12-16T03:32:49.071Z,4.48
2022-12-16T03:35:19.843Z,4.17
2022-12-16T03:37:48.725Z,4.27
2022-12-16T03:40:16.112Z,4.35
2022-12-16T03:42:43.500Z,4.32
2022-12-16T03:45:14.162Z,4.48
2022-12-16T03:47:41.061Z,4.15
2022-12-16T03:50:08.384Z,4.15
2022-12-16T03:52:35.295Z,4.19
2022-12-16T03:55:02.352Z,4.49
2022-12-16T03:57:29.119Z,4.64
2022-12-16T03:59:55.859Z,4.85
2022-12-16T04:02:22.836Z,4.82
2022-12-16T04:04:50.416Z,5.02
2022-12-16T04:07:24.838Z,4.79
2022-12-16T04:09:52.771Z,4.99
2022-12-16T04:12:39.153Z,4.85
2022-12-16T04:15:26.153Z,4.84
2022-12-16T04:18:11.586Z,5.06
2022-12-16T04:20:59.533Z,4.81
2022-12-16T04:23:45.307Z,4.90
2022-12-16T04:26:12.548Z,4.59
2022-12-16T04:28:39.919Z,4.78
2022-12-16T04:31:06.870Z,4.70
2022-12-16T04:33:52.086Z,4.86
2022-12-16T04:36:37.995Z,4.81
2022-12-16T04:39:23.949Z,4.82
2022-12-16T04:42:13.540Z,4.74
2022-12-16T04:44:59.588Z,4.75
2022-12-16T04:47:45.428Z,4.55
2022-12-16T04:50:30.967Z,4.52
2022-12-16T04:53:16.434Z,4.67
2022-12-16T04:56:04.764Z,4.77
2022-12-16T04:58:50.335Z,4.92
2022-12-16T05:01:35.858Z,4.50
2022-12-16T05:04:21.581Z,4.64
2022-12-16T05:07:07.066Z,4.63
2022-12-16T05:09:52.353Z,4.94
2022-12-16T05:12:37.627Z,4.79
2022-12-16T05:15:23.513Z,4.80
2022-12-16T05:18:11.635Z,4.78
2022-12-16T05:20:56.972Z,4.52
2022-12-16T05:23:42.591Z,4.53
2022-12-16T05:26:27.872Z,4.65
2022-12-16T05:29:13.365Z,4.91
2022-12-16T05:31:58.811Z,4.67
2022-12-16T05:34:44.151Z,4.46
2022-12-16T05:37:29.684Z,4.72
2022-12-16T05:40:15.054Z,4.92
2022-12-16T05:43:03.767Z,4.96
2022-12-16T05:45:49.372Z,4.73
2022-12-16T05:48:34.675Z,4.69
2022-12-16T05:51:19.957Z,5.04
2022-12-16T05:54:05.324Z,4.57
2022-12-16T05:56:50.636Z,4.83
2022-12-16T05:59:36.058Z,4.58
2022-12-16T06:02:21.447Z,4.91
2022-12-16T06:05:06.980Z,4.94
2022-12-16T06:07:52.296Z,5.17
2022-12-16T06:10:37.740Z,5.20
2022-12-16T06:13:23.165Z,5.24
2022-12-16T06:16:20.009Z,5.21
2022-12-16T06:19:05.321Z,5.18
2022-12-16T06:21:50.612Z,5.04
2022-12-16T06:27:38.219Z,5.33
2022-12-16T06:30:24.129Z,5.47
2022-12-16T06:33:10.099Z,5.45
2022-12-16T06:35:55.517Z,5.55
2022-12-16T06:38:41.944Z,5.60
2022-12-16T06:41:27.102Z,5.60
2022-12-16T06:44:13.457Z,5.69
2022-12-16T06:46:58.969Z,5.74
2022-12-16T06:49:44.333Z,5.81
2022-12-16T06:52:29.866Z,5.83
2022-12-16T06:55:15.293Z,5.87
2022-12-16T06:58:00.885Z,5.80
2022-12-16T07:00:48.537Z,5.86
2022-12-16T07:03:36.045Z,5.84
2022-12-16T07:06:21.681Z,5.86
2022-12-16T07:09:09.904Z,5.91
2022-12-16T07:11:55.478Z,5.94
2022-12-16T07:14:41.422Z,5.57
2022-12-16T07:17:26.767Z,5.65
2022-12-16T07:20:37.358Z,5.59
2022-12-16T07:23:25.018Z,5.21
2022-12-16T07:26:10.329Z,5.41
2022-12-16T07:28:55.865Z,5.41
2022-12-16T07:31:40.965Z,5.58
2022-12-16T07:34:26.491Z,5.70
2022-12-16T07:37:11.927Z,5.75
2022-12-16T07:39:57.229Z,5.79
2022-12-16T07:42:43.462Z,5.77
2022-12-16T07:45:29.637Z,5.73
2022-12-16T07:48:15.112Z,5.70
2022-12-16T07:51:01.538Z,5.47
2022-12-16T07:53:52.261Z,5.48
2022-12-16T07:56:37.703Z,5.36
2022-12-16T07:59:23.244Z,5.19
2022-12-16T08:02:08.910Z,5.24
2022-12-16T08:04:54.568Z,5.26
2022-12-16T08:07:41.671Z,5.44
2022-12-16T08:10:27.778Z,5.43
2022-12-16T08:13:25.858Z,5.45
2022-12-16T08:16:11.809Z,5.59
2022-12-16T08:18:57.495Z,5.41
2022-12-16T08:21:43.024Z,5.59
2022-12-16T08:24:28.446Z,5.59
2022-12-16T08:27:13.826Z,5.53
2022-12-16T08:29:58.889Z,5.10
2022-12-16T08:32:44.246Z,4.73
2022-12-16T08:35:29.393Z,5.12
2022-12-16T08:38:15.611Z,5.57
2022-12-16T08:41:02.054Z,5.59
2022-12-16T08:43:52.596Z,5.20
2022-12-16T08:46:37.910Z,5.61
2022-12-16T08:49:24.118Z,5.72
2022-12-16T08:52:09.758Z,5.63
2022-12-16T08:54:55.307Z,5.74
2022-12-16T08:57:41.850Z,5.84
2022-12-16T09:00:27.685Z,5.64
2022-12-16T09:03:17.206Z,5.55
2022-12-16T09:06:03.350Z,5.69
2022-12-16T09:08:52.483Z,5.48
2022-12-16T09:11:38.209Z,5.38
2022-12-16T09:14:23.783Z,5.65
2022-12-16T09:17:09.134Z,5.20
2022-12-16T09:19:55.340Z,5.57
2022-12-16T09:22:41.465Z,5.32
2022-12-16T09:25:28.428Z,5.40
2022-12-16T09:28:13.962Z,5.18
2022-12-16T09:30:59.221Z,5.24
2022-12-16T09:33:44.965Z,5.47
2022-12-16T09:36:30.555Z,5.47
2022-12-16T09:39:15.819Z,5.57
2022-12-16T09:42:20.917Z,5.00
2022-12-16T09:45:21.925Z,4.79
2022-12-16T09:48:15.924Z,5.37
2022-12-16T09:51:01.788Z,5.34
2022-12-16T09:53:51.066Z,5.65
2022-12-16T09:56:40.056Z,6.02
2022-12-16T09:59:30.733Z,6.25
2022-12-16T10:02:16.376Z,6.13
2022-12-16T10:05:04.768Z,6.04
2022-12-16T10:07:53.392Z,6.07
2022-12-16T10:11:04.839Z,6.09
2022-12-16T10:13:59.503Z,6.41
2022-12-16T10:17:07.906Z,6.27
2022-12-16T10:20:19.273Z,6.23
2022-12-16T10:23:24.408Z,6.40
2022-12-16T10:26:34.744Z,6.48
2022-12-16T10:29:29.715Z,6.27
2022-12-16T10:32:15.353Z,6.22
2022-12-16T10:35:02.014Z,6.26
2022-12-16T10:37:54.342Z,6.13
2022-12-16T10:40:45.765Z,6.11
2022-12-16T10:43:40.744Z,5.96
2022-12-16T10:46:33.978Z,6.03
2022-12-16T10:49:20.014Z,6.12
2022-12-16T10:52:09.311Z,5.94
2022-12-16T10:55:01.933Z,6.35
2022-12-16T10:57:47.326Z,6.50
2022-12-16T11:00:38.336Z,6.70
2022-12-16T11:03:38.994Z,6.69
2022-12-16T11:06:25.648Z,6.47
2022-12-16T11:09:11.174Z,6.70
2022-12-16T11:11:56.474Z,6.73
2022-12-16T11:15:05.819Z,6.74
2022-12-16T11:17:53.286Z,6.67
2022-12-16T11:20:40.290Z,6.73
2022-12-16T11:23:32.941Z,6.79
2022-12-16T11:26:36.675Z,6.21
2022-12-16T11:29:24.355Z,6.54
2022-12-16T11:32:26.425Z,6.63
2022-12-16T11:56:16.035Z,6.76
2022-12-16T11:59:07.471Z,6.59
2022-12-16T12:02:06.539Z,6.61
2022-12-16T12:04:51.773Z,6.71
2022-12-16T12:07:45.264Z,6.52
2022-12-16T12:21:22.596Z,6.76
2022-12-16T12:24:29.946Z,6.65
2022-12-16T12:27:33.815Z,6.76
2022-12-16T12:30:45.598Z,6.62
2022-12-16T12:33:31.260Z,6.34
2022-12-16T12:36:36.427Z,6.67
2022-12-16T13:18:38.417Z,6.71
2022-12-16T13:21:43.933Z,6.70
2022-12-16T13:24:42.309Z,6.51
2022-12-16T13:27:33.296Z,6.78
2022-12-16T13:30:31.182Z,6.70
2022-12-16T13:33:40.164Z,6.64
2022-12-16T13:36:26.605Z,6.88
2022-12-16T13:39:16.570Z,6.93
2022-12-16T13:42:01.804Z,7.03
2022-12-16T13:45:02.663Z,6.98
2022-12-16T13:48:14.201Z,6.98
2022-12-16T13:51:01.837Z,6.84
2022-12-16T13:53:50.523Z,6.95
2022-12-16T13:56:43.374Z,6.80
2022-12-16T13:59:41.009Z,6.84
2022-12-16T14:02:42.302Z,7.03
2022-12-16T14:05:37.081Z,6.99
2022-12-16T14:08:24.096Z,6.84
2022-12-16T14:11:18.157Z,7.01
2022-12-16T14:14:19.883Z,6.98
2022-12-16T14:17:16.486Z,6.82
2022-12-16T14:20:20.871Z,6.83
2022-12-16T14:23:55.714Z,6.96
2022-12-16T14:26:37.781Z,6.99
2022-12-16T14:29:36.863Z,6.93
2022-12-16T14:32:39.421Z,6.90
2022-12-16T14:35:32.254Z,6.98
2022-12-16T14:38:17.659Z,6.84
2022-12-16T14:41:09.712Z,6.98
2022-12-16T14:43:55.533Z,6.93
2022-12-16T14:46:50.308Z,6.82
2022-12-16T14:49:41.439Z,6.83
2022-12-16T14:52:42.010Z,6.82
2022-12-16T14:55:33.586Z,6.85
2022-12-16T14:58:35.131Z,6.85
2022-12-16T15:01:37.862Z,6.77
2022-12-16T15:04:27.872Z,6.72
2022-12-16T15:07:14.043Z,6.70
2022-12-16T15:10:05.812Z,6.66
2022-12-16T15:12:54.835Z,6.62
2022-12-16T15:16:04.003Z,6.61
2022-12-16T15:18:51.347Z,6.46
2022-12-16T15:21:36.900Z,6.45
2022-12-16T15:24:27.671Z,6.45
2022-12-16T15:27:38.374Z,6.41
2022-12-16T15:30:51.965Z,6.38
2022-12-16T15:33:39.472Z,6.30
2022-12-16T15:36:25.363Z,6.30
2022-12-16T15:39:10.830Z,6.28
2022-12-16T15:41:57.197Z,6.26
2022-12-16T15:44:47.207Z,6.16
2022-12-16T15:47:53.919Z,6.24
2022-12-16T15:50:49.062Z,6.20
2022-12-16T15:53:54.654Z,6.22
2022-12-16T15:57:04.681Z,6.11
2022-12-16T15:59:53.057Z,6.06
2022-12-16T16:02:48.613Z,6.07
2022-12-16T16:05:39.240Z,6.14
2022-12-16T16:08:24.823Z,6.01
2022-12-16T16:11:10.298Z,6.04
2022-12-16T16:13:59.349Z,6.05
2022-12-16T16:16:49.804Z,6.03
2022-12-16T16:19:45.269Z,6.01
2022-12-16T16:22:32.184Z,5.93
2022-12-16T16:25:17.443Z,5.90
2022-12-16T16:28:03.206Z,5.92
2022-12-16T16:30:48.834Z,5.92
2022-12-16T16:33:34.452Z,5.89
2022-12-16T16:36:20.100Z,5.89
2022-12-16T16:39:05.516Z,5.92
2022-12-16T16:41:51.003Z,5.77
2022-12-16T16:44:36.481Z,5.78
2022-12-16T16:47:22.038Z,5.61
2022-12-16T16:50:09.207Z,5.61
2022-12-16T16:52:54.635Z,5.65
2022-12-16T16:55:49.405Z,5.57
2022-12-16T16:58:40.413Z,5.51
2022-12-16T17:01:30.847Z,5.44
2022-12-16T17:04:16.782Z,5.42
2022-12-16T17:07:02.503Z,5.42
2022-12-16T17:09:47.807Z,5.44
2022-12-16T17:12:41.370Z,5.49
2022-12-16T17:15:41.608Z,5.30
2022-12-16T17:18:27.187Z,5.16
2022-12-16T17:21:12.980Z,4.86
2022-12-16T17:23:58.431Z,5.05
2022-12-16T17:26:44.636Z,5.41
2022-12-16T17:29:42.802Z,5.37
2022-12-16T17:32:29.031Z,5.26
2022-12-16T17:35:17.498Z,5.25
2022-12-16T17:38:03.408Z,5.50
2022-12-16T17:40:48.724Z,4.97
2022-12-16T17:43:34.476Z,5.24
2022-12-16T17:46:25.780Z,5.21
2022-12-16T17:49:12.442Z,5.08
2022-12-16T17:51:58.725Z,4.86
2022-12-16T17:54:44.545Z,4.80
2022-12-16T17:57:45.495Z,5.00
2022-12-16T18:00:31.351Z,4.79
2022-12-16T18:03:17.689Z,5.06
2022-12-16T18:06:03.842Z,3.86
2022-12-16T18:08:51.143Z,3.94
2022-12-16T18:11:38.945Z,3.63
2022-12-16T18:14:24.581Z,3.40
2022-12-16T18:17:09.963Z,4.08
2022-12-16T18:19:55.393Z,4.22
2022-12-16T18:22:40.759Z,4.50
2022-12-16T18:25:26.217Z,3.90
2022-12-16T18:28:11.585Z,4.26
2022-12-16T18:30:56.847Z,4.08
2022-12-16T18:33:42.365Z,3.66
2022-12-16T18:36:27.862Z,3.44
2022-12-16T18:39:13.203Z,3.52
2022-12-16T18:42:05.833Z,3.90
2022-12-16T18:44:56.191Z,3.87
2022-12-16T18:47:55.569Z,3.86
2022-12-16T18:50:40.715Z,3.88
2022-12-16T18:53:26.017Z,3.69
2022-12-16T18:56:37.602Z,3.97
2022-12-16T18:59:22.868Z,4.24
2022-12-16T19:02:08.376Z,4.39
2022-12-16T19:04:53.805Z,4.23
2022-12-16T19:07:39.038Z,4.11
2022-12-16T19:10:24.744Z,3.91
2022-12-16T19:13:16.773Z,3.91
2022-12-16T19:16:11.310Z,3.84
2022-12-16T19:18:56.680Z,3.51
2022-12-16T19:21:44.528Z,3.60
2022-12-16T19:24:32.318Z,3.78
2022-12-16T19:27:17.632Z,3.80
2022-12-16T19:30:03.503Z,3.59
2022-12-16T19:32:48.968Z,3.62
2022-12-16T19:35:34.277Z,3.77
2022-12-16T19:38:19.696Z,3.76
2022-12-16T19:41:10.378Z,3.71
2022-12-16T19:43:58.787Z,3.49
2022-12-16T19:46:48.834Z,3.34
2022-12-16T19:49:54.797Z,3.42
2022-12-16T19:52:41.476Z,3.60
2022-12-16T19:55:26.736Z,3.75
2022-12-16T19:58:12.146Z,3.61
2022-12-16T20:00:57.726Z,3.87
2022-12-16T20:03:43.280Z,4.01
2022-12-16T20:06:29.305Z,3.83
2022-12-16T20:09:22.113Z,3.83
2022-12-16T20:12:07.637Z,3.40
2022-12-16T20:14:53.430Z,3.33
2022-12-16T20:17:38.837Z,3.38
2022-12-16T20:20:24.646Z,3.27
2022-12-16T20:23:10.209Z,3.35
2022-12-16T20:25:56.406Z,3.25
2022-12-16T20:28:42.342Z,3.21
2022-12-16T20:31:27.866Z,3.33
2022-12-16T20:34:16.787Z,3.45
2022-12-16T20:37:03.564Z,3.39
2022-12-16T20:39:56.392Z,3.61
2022-12-16T20:42:43.938Z,3.49
2022-12-16T20:45:36.039Z,3.35
2022-12-16T20:48:21.982Z,3.44
2022-12-16T20:51:24.313Z,3.38
2022-12-16T20:54:12.075Z,3.23
2022-12-16T20:56:57.365Z,3.44
2022-12-16T20:59:42.846Z,3.38
2022-12-16T21:02:33.792Z,3.64
2022-12-16T21:05:20.771Z,3.58
2022-12-16T21:08:06.030Z,3.73
2022-12-16T21:10:51.765Z,3.71
2022-12-16T21:13:38.299Z,3.48
2022-12-16T21:16:25.119Z,3.40
2022-12-16T21:19:11.019Z,3.13
2022-12-16T21:21:56.786Z,2.75
2022-12-16T21:24:42.343Z,3.23
2022-12-16T21:27:27.723Z,3.12
2022-12-16T21:30:13.208Z,2.95
2022-12-16T21:32:58.789Z,2.70
2022-12-16T21:35:45.303Z,2.97
2022-12-16T21:38:31.580Z,2.55
2022-12-16T21:41:16.953Z,1.87
2022-12-16T21:44:02.261Z,1.73
2022-12-16T21:46:47.434Z,1.74
2022-12-16T21:49:32.726Z,1.62
2022-12-16T21:52:18.546Z,1.64
2022-12-16T21:55:08.897Z,2.00
2022-12-16T21:57:58.509Z,1.80
2022-12-16T22:00:43.834Z,1.64
2022-12-16T22:03:29.722Z,1.99
2022-12-16T22:06:18.296Z,2.15
2022-12-16T22:09:03.819Z,2.14
2022-12-16T22:11:49.523Z,2.38
2022-12-16T22:14:41.559Z,2.50
2022-12-16T22:17:27.086Z,2.61
2022-12-16T22:20:33.951Z,2.39
2022-12-16T22:26:18.013Z,2.70
2022-12-16T22:29:07.524Z,2.59
2022-12-16T22:32:06.648Z,2.51
2022-12-16T22:34:59.455Z,2.62
2022-12-16T22:37:49.345Z,2.57
2022-12-16T22:40:35.162Z,2.13
2022-12-16T22:43:24.614Z,1.90
2022-12-16T22:46:18.973Z,2.43
2022-12-16T22:49:10.647Z,2.69
2022-12-16T22:51:56.087Z,2.53
2022-12-16T22:54:42.414Z,2.77
2022-12-16T22:57:34.571Z,3.04
2022-12-16T23:00:20.550Z,3.00
2022-12-16T23:03:06.162Z,2.82
2022-12-16T23:05:51.885Z,2.99
2022-12-16T23:08:38.605Z,2.86
2022-12-16T23:11:23.932Z,2.50
2022-12-16T23:14:09.265Z,2.38
2022-12-16T23:16:57.545Z,2.21
2022-12-16T23:19:43.106Z,2.46
2022-12-16T23:22:28.677Z,2.40
2022-12-16T23:25:15.623Z,2.15
2022-12-16T23:28:01.193Z,1.70
2022-12-16T23:30:46.613Z,1.30
2022-12-16T23:33:32.178Z,1.32
2022-12-16T23:36:17.749Z,1.59
2022-12-16T23:39:03.180Z,1.62
2022-12-16T23:41:48.864Z,1.37
2022-12-16T23:44:34.167Z,1.14
2022-12-16T23:47:19.817Z,0.82
2022-12-16T23:50:05.667Z,0.75
2022-12-16T23:52:52.821Z,0.69
2022-12-16T23:55:41.778Z,0.94
2022-12-16T23:58:28.918Z,0.72
